createdAt,value
2018-02-21T00:00:35.652Z,70.50
2018-02-21T00:03:03.819Z,67.37
2018-02-21T00:05:31.949Z,75.97
2018-02-21T00:08:00.201Z,69.73
2018-02-21T00:10:28.308Z,73.80
2018-02-21T00:12:56.409Z,72.67
2018-02-21T00:15:24.564Z,84.77
2018-02-21T00:17:52.665Z,80.03
2018-02-21T00:20:20.769Z,78.33
2018-02-21T00:22:48.865Z,77.47
2018-02-21T00:25:17.065Z,82.33
2018-02-21T00:27:45.289Z,85.50
2018-02-21T00:30:13.499Z,89.70
2018-02-21T00:32:41.635Z,89.73
2018-02-21T00:35:09.727Z,81.50
2018-02-21T00:37:37.874Z,81.17
2018-02-21T00:40:06.000Z,81.43
2018-02-21T00:42:34.090Z,79.53
2018-02-21T00:45:02.217Z,75.70
2018-02-21T00:47:31.194Z,71.23
2018-02-21T00:49:59.423Z,78.73
2018-02-21T00:52:27.518Z,66.50
2018-02-21T00:54:55.650Z,79.67
2018-02-21T00:57:23.768Z,77.10
2018-02-21T00:59:51.850Z,73.70
2018-02-21T01:02:19.964Z,84.83
2018-02-21T01:04:48.078Z,85.53
2018-02-21T01:07:16.253Z,75.93
2018-02-21T01:09:44.525Z,80.27
2018-02-21T01:12:12.730Z,75.90
2018-02-21T01:14:40.876Z,71.90
2018-02-21T01:17:08.988Z,77.57
2018-02-21T01:19:37.852Z,73.27
2018-02-21T01:22:05.938Z,73.57
2018-02-21T01:24:34.049Z,74.40
2018-02-21T01:27:02.217Z,74.90
2018-02-21T01:29:30.352Z,82.23
2018-02-21T01:31:58.476Z,71.63
2018-02-21T01:34:27.108Z,77.80
2018-02-21T01:36:55.352Z,71.17
2018-02-21T01:39:23.501Z,72.83
2018-02-21T01:41:51.720Z,72.00
2018-02-21T01:44:19.899Z,66.63
2018-02-21T01:46:48.051Z,72.33
2018-02-21T01:49:16.517Z,73.87
2018-02-21T01:51:44.618Z,75.63
2018-02-21T01:54:12.731Z,63.50
2018-02-21T01:56:41.722Z,66.67
2018-02-21T01:59:09.812Z,75.20
2018-02-21T02:01:38.019Z,72.83
2018-02-21T02:04:06.123Z,66.87
2018-02-21T02:06:34.267Z,65.23
2018-02-21T02:09:02.373Z,68.60
2018-02-21T02:11:31.851Z,74.43
2018-02-21T02:13:59.989Z,77.00
2018-02-21T02:16:28.161Z,65.67
2018-02-21T02:18:56.346Z,69.67
2018-02-21T02:21:24.463Z,81.93
2018-02-21T02:23:52.620Z,78.53
2018-02-21T02:26:21.212Z,80.23
2018-02-21T02:28:49.339Z,78.20
2018-02-21T02:31:17.552Z,70.33
2018-02-21T02:33:45.639Z,76.03
2018-02-21T02:36:13.744Z,72.50
2018-02-21T02:41:43.489Z,69.23
2018-02-21T02:44:11.650Z,91.47
2018-02-21T02:46:39.732Z,84.43
2018-02-21T02:49:07.844Z,80.57
2018-02-21T02:51:36.020Z,104.37
2018-02-21T02:54:04.154Z,97.20
2018-02-21T02:56:32.272Z,105.43
2018-02-21T02:59:00.371Z,101.43
2018-02-21T03:01:28.528Z,100.40
2018-02-21T03:03:57.405Z,119.77
2018-02-21T03:06:25.501Z,130.57
2018-02-21T03:08:54.512Z,88.00
2018-02-21T03:11:22.658Z,80.80
2018-02-21T03:13:51.964Z,76.07
2018-02-21T03:16:20.814Z,96.87
2018-02-21T03:18:49.623Z,90.37
2018-02-21T03:21:17.727Z,95.97
2018-02-21T03:23:45.846Z,85.30
2018-02-21T03:26:13.966Z,81.47
2018-02-21T03:28:42.057Z,108.90
2018-02-21T03:31:10.203Z,92.07
2018-02-21T03:33:38.310Z,82.37
2018-02-21T03:36:06.403Z,85.60
2018-02-21T03:38:34.519Z,79.20
2018-02-21T03:41:02.645Z,90.60
2018-02-21T03:43:30.859Z,92.40
2018-02-21T03:45:59.505Z,79.03
2018-02-21T03:48:27.610Z,84.30
2018-02-21T03:50:55.702Z,72.67
2018-02-21T03:53:24.635Z,79.07
2018-02-21T03:55:52.739Z,76.53
2018-02-21T03:58:21.602Z,83.50
2018-02-21T04:00:49.760Z,86.60
2018-02-21T04:03:17.913Z,80.80
2018-02-21T04:05:46.156Z,99.60
2018-02-21T04:08:14.300Z,88.97
2018-02-21T04:10:42.416Z,92.27
2018-02-21T04:13:10.556Z,84.27
2018-02-21T04:15:38.676Z,104.80
2018-02-21T04:18:06.774Z,94.20
2018-02-21T04:20:34.862Z,91.00
2018-02-21T04:23:02.984Z,92.47
2018-02-21T04:25:31.088Z,92.37
2018-02-21T04:27:59.178Z,87.57
2018-02-21T04:30:27.280Z,101.80
2018-02-21T04:32:55.368Z,94.20
2018-02-21T04:35:23.477Z,88.10
2018-02-21T04:37:51.590Z,73.63
2018-02-21T04:40:19.684Z,70.83
2018-02-21T04:42:47.962Z,67.80
2018-02-21T04:45:16.186Z,70.47
2018-02-21T04:47:44.374Z,75.80
2018-02-21T04:50:12.658Z,78.47
2018-02-21T04:52:40.895Z,67.97
2018-02-21T04:58:13.727Z,64.30
2018-02-21T05:00:42.958Z,65.03
2018-02-21T05:03:11.039Z,50.97
2018-02-21T05:05:39.173Z,58.43
2018-02-21T05:08:07.273Z,49.80
2018-02-21T05:10:35.369Z,55.80
2018-02-21T05:13:03.478Z,55.10
2018-02-21T05:15:32.275Z,62.97
2018-02-21T05:18:00.451Z,56.80
2018-02-21T05:20:28.720Z,52.33
2018-02-21T05:22:56.940Z,57.40
2018-02-21T05:25:25.172Z,50.53
2018-02-21T05:27:53.396Z,65.60
2018-02-21T05:30:21.530Z,50.30
2018-02-21T05:32:49.656Z,53.17
2018-02-21T05:35:18.378Z,55.27
2018-02-21T05:37:46.492Z,53.20
2018-02-21T05:40:14.642Z,56.63
2018-02-21T05:42:42.786Z,58.37
2018-02-21T05:45:10.880Z,58.97
2018-02-21T05:47:39.103Z,60.10
2018-02-21T05:50:07.228Z,54.47
2018-02-21T05:52:35.334Z,62.60
2018-02-21T05:55:03.464Z,58.37
2018-02-21T05:57:31.552Z,49.07
2018-02-21T05:59:59.653Z,56.97
2018-02-21T06:02:27.873Z,63.33
2018-02-21T06:04:55.991Z,58.33
2018-02-21T06:07:24.092Z,64.30
2018-02-21T06:09:52.216Z,62.87
2018-02-21T06:12:21.195Z,62.13
2018-02-21T06:14:49.393Z,77.47
2018-02-21T06:17:17.509Z,56.43
2018-02-21T06:19:45.635Z,56.47
2018-02-21T06:22:13.838Z,61.17
2018-02-21T06:24:42.061Z,70.40
2018-02-21T06:27:10.321Z,56.00
2018-02-21T06:29:38.679Z,56.40
2018-02-21T06:32:06.972Z,59.43
2018-02-21T06:34:35.140Z,56.13
2018-02-21T06:37:03.367Z,63.03
2018-02-21T06:39:32.688Z,58.63
2018-02-21T06:42:00.812Z,64.90
2018-02-21T06:44:28.953Z,60.23
2018-02-21T06:46:57.057Z,58.50
2018-02-21T06:49:25.168Z,64.43
2018-02-21T06:51:54.060Z,68.00
2018-02-21T06:54:22.156Z,68.97
2018-02-21T06:56:50.328Z,74.70
2018-02-21T06:59:18.520Z,69.00
2018-02-21T07:01:46.737Z,66.30
2018-02-21T07:04:14.925Z,69.43
2018-02-21T07:06:43.028Z,66.93
2018-02-21T07:09:11.184Z,69.50
2018-02-21T07:11:40.085Z,69.23
2018-02-21T07:14:08.219Z,67.43
2018-02-21T07:16:36.310Z,69.40
2018-02-21T07:19:04.487Z,64.93
2018-02-21T07:21:32.640Z,63.63
2018-02-21T07:24:00.752Z,70.33
2018-02-21T07:26:28.912Z,70.77
2018-02-21T07:28:57.881Z,68.80
2018-02-21T07:31:27.473Z,59.97
2018-02-21T07:33:55.869Z,64.77
2018-02-21T07:36:24.000Z,60.67
2018-02-21T07:38:52.400Z,63.87
2018-02-21T07:41:22.757Z,58.63
2018-02-21T07:43:54.244Z,62.50
2018-02-21T07:46:23.127Z,83.80
2018-02-21T07:48:51.233Z,67.67
2018-02-21T07:51:19.983Z,57.13
2018-02-21T07:53:48.094Z,58.30
2018-02-21T07:56:20.343Z,58.43
2018-02-21T07:58:48.466Z,53.27
2018-02-21T08:01:16.579Z,56.07
2018-02-21T08:03:44.702Z,57.60
2018-02-21T08:06:12.828Z,56.33
2018-02-21T08:08:40.956Z,56.40
2018-02-21T08:11:09.130Z,61.80
2018-02-21T08:13:37.229Z,56.47
2018-02-21T08:16:05.348Z,54.13
2018-02-21T08:18:33.440Z,55.90
2018-02-21T08:21:01.553Z,54.27
2018-02-21T08:23:29.646Z,50.37
2018-02-21T08:25:57.753Z,59.93
2018-02-21T08:28:25.854Z,56.03
2018-02-21T08:30:53.956Z,57.27
2018-02-21T08:33:22.079Z,54.73
2018-02-21T08:35:50.155Z,55.23
2018-02-21T08:38:18.355Z,59.87
2018-02-21T08:40:46.787Z,51.80
2018-02-21T08:43:14.938Z,53.67
2018-02-21T08:45:43.033Z,56.10
2018-02-21T08:48:11.133Z,63.23
2018-02-21T08:50:39.409Z,62.40
2018-02-21T08:53:07.613Z,54.73
2018-02-21T08:55:35.889Z,56.70
2018-02-21T08:58:04.984Z,54.40
2018-02-21T09:00:33.140Z,53.47
2018-02-21T09:03:01.245Z,63.90
2018-02-21T09:05:29.445Z,54.43
2018-02-21T09:07:58.527Z,48.83
2018-02-21T09:10:26.627Z,56.53
2018-02-21T09:12:54.785Z,58.80
2018-02-21T09:15:22.887Z,57.43
2018-02-21T09:17:51.822Z,56.47
2018-02-21T09:20:19.933Z,54.20
2018-02-21T09:22:48.060Z,57.30
2018-02-21T09:25:16.170Z,55.67
2018-02-21T09:27:44.295Z,53.53
2018-02-21T09:30:12.424Z,57.83
2018-02-21T09:32:40.577Z,59.33
2018-02-21T09:35:08.742Z,54.77
2018-02-21T09:37:36.852Z,56.13
2018-02-21T09:40:05.020Z,58.07
2018-02-21T09:42:33.118Z,57.70
2018-02-21T09:45:01.999Z,61.47
2018-02-21T09:47:30.110Z,51.63
2018-02-21T09:49:58.286Z,53.20
2018-02-21T09:52:26.418Z,48.03
2018-02-21T09:54:54.562Z,50.70
2018-02-21T09:57:22.632Z,54.30
2018-02-21T09:59:50.759Z,51.30
2018-02-21T10:02:18.869Z,47.90
2018-02-21T10:04:46.981Z,49.20
2018-02-21T10:07:15.099Z,57.27
2018-02-21T10:09:43.267Z,54.93
2018-02-21T10:12:11.581Z,50.73
2018-02-21T10:14:40.441Z,50.17
2018-02-21T10:17:08.612Z,50.90
2018-02-21T10:19:36.752Z,55.07
2018-02-21T10:22:04.835Z,55.03
2018-02-21T10:24:32.945Z,55.93
2018-02-21T10:27:01.063Z,50.53
2018-02-21T10:29:29.275Z,55.20
2018-02-21T10:31:57.491Z,52.57
2018-02-21T10:34:25.618Z,52.60
2018-02-21T10:36:53.763Z,50.13
2018-02-21T10:39:21.940Z,51.90
2018-02-21T10:41:50.513Z,52.90
2018-02-21T10:44:18.782Z,53.23
2018-02-21T10:46:47.665Z,57.87
2018-02-21T10:49:15.807Z,56.23
2018-02-21T10:51:43.918Z,56.37
2018-02-21T10:54:12.031Z,55.87
2018-02-21T10:56:40.130Z,52.80
2018-02-21T10:59:09.198Z,54.93
2018-02-21T11:01:37.414Z,59.97
2018-02-21T11:04:09.709Z,56.57
2018-02-21T11:06:55.698Z,51.37
2018-02-21T11:09:28.572Z,48.50
2018-02-21T11:11:58.449Z,52.07
2018-02-21T11:14:34.887Z,43.17
2018-02-21T11:17:14.663Z,52.57
2018-02-21T11:19:47.284Z,46.17
2018-02-21T11:22:15.461Z,49.40
2018-02-21T11:24:43.572Z,45.77
2018-02-21T11:27:12.441Z,43.57
2018-02-21T11:29:40.579Z,45.93
2018-02-21T11:32:09.847Z,43.83
2018-02-21T11:34:37.981Z,43.50
2018-02-21T11:37:06.092Z,45.23
2018-02-21T11:39:34.195Z,43.00
2018-02-21T11:42:02.295Z,46.67
2018-02-21T11:44:30.440Z,43.37
2018-02-21T11:46:58.597Z,46.80
2018-02-21T11:49:26.751Z,50.33
2018-02-21T11:51:55.221Z,56.87
2018-02-21T11:54:23.409Z,56.17
2018-02-21T11:56:52.998Z,44.80
2018-02-21T11:59:21.154Z,57.63
2018-02-21T12:05:09.466Z,56.27
2018-02-21T12:07:37.612Z,55.60
2018-02-21T12:10:05.796Z,60.13
2018-02-21T12:12:33.949Z,61.37
2018-02-21T12:15:02.077Z,51.13
2018-02-21T12:17:30.310Z,56.30
2018-02-21T12:19:58.478Z,57.83
2018-02-21T12:22:26.718Z,55.10
2018-02-21T12:24:54.962Z,53.53
2018-02-21T12:27:23.152Z,56.23
2018-02-21T12:29:51.362Z,60.40
2018-02-21T12:32:20.382Z,52.27
2018-02-21T12:34:48.520Z,54.87
2018-02-21T12:37:16.710Z,57.27
2018-02-21T12:39:44.854Z,60.10
2018-02-21T12:42:12.988Z,48.70
2018-02-21T12:44:41.129Z,51.53
2018-02-21T12:47:09.389Z,57.23
2018-02-21T12:49:37.534Z,50.17
2018-02-21T12:52:05.667Z,53.27
2018-02-21T12:54:33.836Z,51.07
2018-02-21T12:57:01.950Z,56.13
2018-02-21T12:59:30.082Z,55.80
2018-02-21T13:01:58.251Z,54.63
2018-02-21T13:04:26.481Z,55.50
2018-02-21T13:06:54.619Z,48.10
2018-02-21T13:09:22.728Z,47.83
2018-02-21T13:11:50.874Z,49.10
2018-02-21T13:14:19.023Z,57.53
2018-02-21T13:16:47.169Z,50.33
2018-02-21T13:19:15.338Z,55.43
2018-02-21T13:21:43.572Z,59.50
2018-02-21T13:24:11.728Z,50.90
2018-02-21T13:26:39.885Z,50.43
2018-02-21T13:29:08.072Z,50.00
2018-02-21T13:31:36.187Z,50.73
2018-02-21T13:34:21.526Z,51.20
2018-02-21T13:49:45.424Z,51.13
2018-02-21T13:52:13.550Z,47.90
2018-02-21T13:54:42.784Z,44.20
2018-02-21T13:57:11.008Z,51.37
2018-02-21T13:59:39.144Z,51.13
2018-02-21T14:02:08.305Z,49.53
2018-02-21T14:04:36.420Z,50.03
2018-02-21T14:07:04.582Z,54.17
2018-02-21T14:09:32.704Z,48.73
2018-02-21T14:12:00.834Z,55.80
2018-02-21T14:14:29.042Z,56.07
2018-02-21T14:16:57.164Z,54.27
2018-02-21T14:19:25.310Z,59.83
2018-02-21T14:24:36.582Z,53.80
2018-02-21T14:27:05.380Z,54.27
2018-02-21T14:29:38.521Z,53.33
2018-02-21T14:32:10.524Z,54.90
2018-02-21T14:34:39.178Z,55.80
2018-02-21T14:37:15.953Z,56.33
2018-02-21T14:39:52.615Z,56.20
2018-02-21T14:42:28.673Z,52.13
2018-02-21T14:45:05.445Z,55.70
2018-02-21T15:00:28.608Z,51.93
2018-02-21T15:02:56.735Z,52.00
2018-02-21T15:05:33.444Z,48.03
2018-02-21T15:08:01.674Z,57.43
2018-02-21T15:10:29.784Z,52.33
2018-02-21T15:12:57.908Z,53.13
2018-02-21T15:15:26.000Z,54.03
2018-02-21T15:17:54.112Z,52.37
2018-02-21T15:20:22.248Z,53.77
2018-02-21T15:22:50.374Z,48.90
2018-02-21T15:25:18.526Z,55.10
2018-02-21T15:27:46.658Z,50.73
2018-02-21T15:30:14.788Z,56.90
2018-02-21T15:32:42.885Z,50.77
2018-02-21T15:35:11.425Z,50.73
2018-02-21T15:37:39.620Z,54.87
2018-02-21T15:40:07.820Z,57.83
2018-02-21T15:42:35.922Z,50.63
2018-02-21T15:45:04.012Z,53.60
2018-02-21T15:47:33.128Z,54.20
2018-02-21T15:50:01.262Z,51.67
2018-02-21T15:52:29.372Z,59.03
2018-02-21T15:54:57.749Z,56.57
2018-02-21T15:57:25.965Z,53.00
2018-02-21T15:59:54.093Z,55.83
2018-02-21T16:02:22.972Z,51.00
2018-02-21T16:04:51.831Z,56.40
2018-02-21T16:07:20.109Z,53.50
2018-02-21T16:09:48.316Z,55.00
2018-02-21T16:12:16.583Z,56.70
2018-02-21T16:14:44.884Z,52.20
2018-02-21T16:17:13.016Z,51.77
2018-02-21T16:19:41.299Z,48.23
2018-02-21T16:22:09.492Z,52.23
2018-02-21T16:24:37.637Z,59.27
2018-02-21T16:27:06.137Z,54.00
2018-02-21T16:29:34.334Z,54.90
2018-02-21T16:32:02.830Z,53.87
2018-02-21T16:34:30.978Z,57.10
2018-02-21T16:36:59.905Z,56.33
2018-02-21T16:39:28.013Z,58.30
2018-02-21T16:41:56.721Z,53.83
2018-02-21T16:44:24.905Z,57.67
2018-02-21T16:46:53.842Z,62.37
2018-02-21T16:49:21.978Z,59.73
2018-02-21T16:51:50.226Z,56.93
2018-02-21T16:54:22.046Z,64.90
2018-02-21T16:56:50.180Z,68.37
2018-02-21T16:59:18.282Z,61.53
2018-02-21T17:01:46.442Z,63.77
2018-02-21T17:04:14.662Z,59.00
2018-02-21T17:06:42.840Z,60.23
2018-02-21T17:09:11.048Z,68.93
2018-02-21T17:11:39.133Z,69.40
2018-02-21T17:14:07.299Z,68.60
2018-02-21T17:16:35.412Z,68.33
2018-02-21T17:19:03.508Z,64.07
2018-02-21T17:21:31.614Z,64.80
2018-02-21T17:23:59.704Z,59.43
2018-02-21T17:26:28.203Z,56.73
2018-02-21T17:28:56.434Z,62.73
2018-02-21T17:31:24.543Z,62.97
2018-02-21T17:33:52.665Z,62.87
2018-02-21T17:36:20.812Z,58.60
2018-02-21T17:38:48.906Z,66.70
2018-02-21T17:41:22.437Z,65.53
2018-02-21T17:43:50.673Z,63.37
2018-02-21T17:46:18.784Z,58.83
2018-02-21T17:48:46.887Z,67.17
2018-02-21T17:51:15.008Z,71.10
2018-02-21T17:53:43.120Z,70.17
2018-02-21T17:56:11.221Z,62.33
2018-02-21T17:58:39.351Z,64.57
2018-02-21T18:01:07.460Z,69.00
2018-02-21T18:03:35.580Z,66.00
2018-02-21T18:06:03.712Z,70.07
2018-02-21T18:08:32.167Z,66.03
2018-02-21T18:11:00.515Z,65.87
2018-02-21T18:13:28.614Z,67.47
2018-02-21T18:15:56.717Z,69.60
2018-02-21T18:18:24.816Z,60.33
2018-02-21T18:20:52.924Z,73.53
2018-02-21T18:23:21.612Z,68.50
2018-02-21T18:25:49.772Z,62.30
2018-02-21T18:28:17.908Z,65.10
2018-02-21T18:30:46.503Z,64.20
2018-02-21T18:33:15.428Z,57.77
2018-02-21T18:35:43.656Z,62.90
2018-02-21T18:38:12.094Z,59.13
2018-02-21T18:40:40.240Z,64.17
2018-02-21T18:43:08.443Z,56.93
2018-02-21T18:45:36.677Z,64.70
2018-02-21T18:48:04.956Z,56.53
2018-02-21T18:50:33.132Z,60.40
2018-02-21T18:53:01.250Z,64.70
2018-02-21T18:55:29.342Z,63.23
2018-02-21T18:57:57.488Z,64.87
2018-02-21T19:00:26.183Z,65.30
2018-02-21T19:02:54.331Z,64.93
2018-02-21T19:05:22.461Z,65.27
2018-02-21T19:07:51.089Z,65.27
2018-02-21T19:10:19.316Z,65.10
2018-02-21T19:12:48.258Z,68.77
2018-02-21T19:15:16.453Z,65.83
2018-02-21T19:17:44.557Z,67.50
2018-02-21T19:20:13.300Z,72.33
2018-02-21T19:22:41.828Z,67.70
2018-02-21T19:25:10.024Z,67.87
2018-02-21T19:27:38.110Z,74.33
2018-02-21T19:30:06.245Z,65.20
2018-02-21T19:32:34.368Z,62.20
2018-02-21T19:35:02.508Z,69.47
2018-02-21T19:37:31.392Z,67.03
2018-02-21T19:39:59.532Z,67.97
2018-02-21T19:42:27.652Z,68.47
2018-02-21T19:44:55.761Z,71.03
2018-02-21T19:47:23.884Z,61.83
2018-02-21T19:49:52.755Z,71.30
2018-02-21T19:52:20.905Z,65.90
2018-02-21T19:54:49.008Z,59.90
2018-02-21T19:57:17.148Z,66.10
2018-02-21T19:59:45.217Z,69.63
2018-02-21T20:02:13.389Z,74.47
2018-02-21T20:04:41.518Z,75.47
2018-02-21T20:07:09.709Z,73.23
2018-02-21T20:09:37.762Z,81.03
2018-02-21T20:12:05.873Z,72.27
2018-02-21T20:14:33.989Z,70.60
2018-02-21T20:17:02.078Z,81.97
2018-02-21T20:19:30.292Z,68.97
2018-02-21T20:21:58.417Z,69.17
2018-02-21T20:24:26.600Z,76.80
2018-02-21T20:26:54.810Z,76.43
2018-02-21T20:29:23.056Z,71.47
2018-02-21T20:31:51.209Z,78.10
2018-02-21T20:34:19.299Z,78.73
2018-02-21T20:36:47.420Z,80.90
2018-02-21T20:39:15.551Z,79.10
2018-02-21T20:41:43.678Z,78.97
2018-02-21T20:44:11.801Z,72.70
2018-02-21T20:46:39.922Z,69.80
2018-02-21T20:49:08.388Z,64.63
2018-02-21T20:51:36.518Z,66.20
2018-02-21T20:54:04.626Z,76.13
2018-02-21T20:56:32.854Z,73.17
2018-02-21T20:59:01.055Z,72.43
2018-02-21T21:01:29.266Z,65.97
2018-02-21T21:03:57.397Z,75.67
2018-02-21T21:06:25.500Z,71.80
2018-02-21T21:08:53.628Z,79.27
2018-02-21T21:11:22.613Z,73.87
2018-02-21T21:13:50.731Z,72.33
2018-02-21T21:16:18.872Z,73.30
2018-02-21T21:18:47.061Z,81.47
2018-02-21T21:21:15.243Z,84.40
2018-02-21T21:23:44.088Z,75.57
2018-02-21T21:26:12.183Z,85.07
2018-02-21T21:28:41.159Z,80.90
2018-02-21T21:31:10.089Z,81.93
2018-02-21T21:33:38.226Z,87.53
2018-02-21T21:36:06.349Z,91.93
2018-02-21T21:38:34.475Z,86.77
2018-02-21T21:41:03.381Z,91.37
2018-02-21T21:43:31.497Z,101.17
2018-02-21T21:45:59.644Z,74.63
2018-02-21T21:48:27.753Z,74.23
2018-02-21T21:50:55.924Z,80.07
2018-02-21T21:53:24.047Z,84.10
2018-02-21T21:55:52.162Z,74.67
2018-02-21T21:58:20.287Z,81.67
2018-02-21T22:00:48.455Z,75.50
2018-02-21T22:03:16.519Z,74.23
2018-02-21T22:05:44.650Z,71.57
2018-02-21T22:08:12.908Z,80.40
2018-02-21T22:10:41.038Z,80.73
2018-02-21T22:13:09.939Z,92.83
2018-02-21T22:15:38.058Z,92.77
2018-02-21T22:18:06.162Z,84.57
2018-02-21T22:20:34.312Z,92.87
2018-02-21T22:23:02.470Z,85.10
2018-02-21T22:25:30.581Z,76.73
2018-02-21T22:27:58.686Z,87.17
2018-02-21T22:30:26.798Z,91.97
2018-02-21T22:32:54.922Z,80.10
2018-02-21T22:35:23.051Z,85.63
2018-02-21T22:37:51.162Z,74.90
2018-02-21T22:40:19.264Z,87.30
2018-02-21T22:42:47.404Z,76.50
2018-02-21T22:45:16.276Z,86.70
2018-02-21T22:47:44.391Z,89.67
2018-02-21T22:50:13.257Z,87.30
2018-02-21T22:52:41.377Z,73.80
2018-02-21T22:55:09.487Z,82.57
2018-02-21T22:57:37.705Z,92.17
2018-02-21T23:00:05.811Z,84.27
2018-02-21T23:02:33.927Z,78.00
2018-02-21T23:05:02.062Z,91.63
2018-02-21T23:07:30.179Z,80.27
2018-02-21T23:09:58.303Z,82.43
2018-02-21T23:12:26.459Z,88.90
2018-02-21T23:14:54.581Z,85.67
2018-02-21T23:17:23.464Z,80.50
2018-02-21T23:19:52.377Z,88.57
2018-02-21T23:22:20.499Z,88.20
2018-02-21T23:24:48.623Z,84.13
2018-02-21T23:27:16.818Z,87.10
2018-02-21T23:29:45.046Z,85.60
2018-02-21T23:32:13.263Z,80.67
2018-02-21T23:34:41.382Z,71.20
2018-02-21T23:37:09.509Z,107.43
2018-02-21T23:39:37.616Z,101.63
2018-02-21T23:42:05.759Z,80.77
2018-02-21T23:44:33.912Z,78.90
2018-02-21T23:47:02.104Z,79.13
2018-02-21T23:49:30.304Z,94.37
2018-02-21T23:51:58.438Z,79.23
2018-02-21T23:54:26.570Z,85.37
2018-02-21T23:56:54.697Z,75.20
2018-02-21T23:59:23.602Z,80.40
